createdAt,value
2023-05-22T00:00:25.602Z,4.82
2023-05-22T00:01:58.000Z,5.45
2023-05-22T00:03:30.951Z,5.50
2023-05-22T00:05:03.697Z,5.30
2023-05-22T00:06:35.981Z,5.55
2023-05-22T00:08:14.143Z,5.45
2023-05-22T00:09:46.998Z,5.43
2023-05-22T00:11:19.330Z,5.40
2023-05-22T00:12:51.516Z,5.32
2023-05-22T00:14:23.739Z,5.20
2023-05-22T00:15:56.013Z,5.70
2023-05-22T00:17:31.086Z,5.22
2023-05-22T00:19:04.084Z,5.55
2023-05-22T00:20:39.619Z,5.20
2023-05-22T00:22:12.178Z,5.40
2023-05-22T00:23:44.358Z,5.30
2023-05-22T00:25:19.400Z,4.85
2023-05-22T00:26:51.551Z,5.40
2023-05-22T00:28:23.707Z,5.40
2023-05-22T00:29:55.921Z,5.57
2023-05-22T00:31:28.079Z,5.80
2023-05-22T00:33:00.264Z,5.55
2023-05-22T00:34:32.533Z,5.65
2023-05-22T00:36:05.110Z,6.05
2023-05-22T00:37:37.346Z,5.20
2023-05-22T00:39:10.237Z,5.40
2023-05-22T00:40:42.423Z,5.28
2023-05-22T00:42:14.539Z,5.75
2023-05-22T00:43:46.694Z,5.22
2023-05-22T00:45:18.889Z,5.60
2023-05-22T00:46:51.798Z,5.80
2023-05-22T00:48:24.538Z,5.80
2023-05-22T00:49:56.778Z,5.15
2023-05-22T00:51:29.031Z,5.47
2023-05-22T00:53:01.294Z,6.50
2023-05-22T00:54:33.733Z,5.20
2023-05-22T00:56:07.484Z,5.45
2023-05-22T00:57:42.943Z,5.75
2023-05-22T00:59:15.196Z,5.40
2023-05-22T01:00:47.947Z,5.90
2023-05-22T01:02:20.888Z,5.50
2023-05-22T01:03:54.226Z,5.07
2023-05-22T01:06:59.785Z,5.47
2023-05-22T01:08:32.008Z,5.63
2023-05-22T01:10:06.533Z,5.70
2023-05-22T01:12:10.026Z,5.72
2023-05-22T01:13:57.171Z,5.68
2023-05-22T01:15:41.471Z,5.45
2023-05-22T01:17:38.533Z,6.47
2023-05-22T01:19:54.379Z,6.35
2023-05-22T01:21:46.530Z,6.75
2023-05-22T01:23:27.686Z,6.55
2023-05-22T01:25:17.867Z,6.45
2023-05-22T01:27:26.286Z,6.13
2023-05-22T01:29:09.559Z,6.22
2023-05-22T01:31:01.693Z,6.05
2023-05-22T01:32:34.937Z,5.63
2023-05-22T01:34:12.183Z,6.35
2023-05-22T01:35:47.425Z,5.90
2023-05-22T01:37:24.204Z,6.13
2023-05-22T01:38:56.940Z,5.60
2023-05-22T01:40:29.975Z,7.28
2023-05-22T01:42:02.912Z,6.47
2023-05-22T01:43:36.517Z,6.55
2023-05-22T01:45:12.391Z,6.15
2023-05-22T01:46:44.572Z,5.70
2023-05-22T01:48:16.839Z,6.00
2023-05-22T01:49:49.039Z,5.88
2023-05-22T01:51:27.288Z,6.05
2023-05-22T01:53:14.346Z,6.10
2023-05-22T01:54:49.070Z,6.38
2023-05-22T01:56:31.370Z,6.30
2023-05-22T01:58:34.107Z,6.13
2023-05-22T02:00:11.728Z,5.90
2023-05-22T02:01:44.463Z,5.50
2023-05-22T02:03:21.061Z,6.05
2023-05-22T02:04:57.110Z,5.95
2023-05-22T02:06:33.833Z,6.25
2023-05-22T02:08:06.366Z,5.95
2023-05-22T02:09:39.671Z,6.10
2023-05-22T02:11:13.244Z,6.00
2023-05-22T02:12:45.610Z,5.95
2023-05-22T02:14:18.971Z,6.47
2023-05-22T02:17:23.973Z,6.25
2023-05-22T02:19:08.326Z,6.25
2023-05-22T02:20:41.191Z,6.15
2023-05-22T02:22:16.467Z,5.68
2023-05-22T02:23:48.623Z,5.70
2023-05-22T02:25:21.063Z,5.53
2023-05-22T02:26:53.165Z,6.50
2023-05-22T02:28:25.339Z,5.95
2023-05-22T02:29:57.616Z,6.57
2023-05-22T02:31:30.024Z,5.97
2023-05-22T02:33:06.014Z,6.20
2023-05-22T02:34:38.357Z,5.90
2023-05-22T02:36:11.316Z,6.38
2023-05-22T02:37:45.761Z,6.10
2023-05-22T02:39:20.888Z,6.22
2023-05-22T02:40:53.178Z,6.22
2023-05-22T02:42:25.387Z,6.55
2023-05-22T02:43:57.602Z,6.38
2023-05-22T02:45:30.280Z,6.30
2023-05-22T02:47:02.506Z,6.15
2023-05-22T02:48:34.752Z,6.50
2023-05-22T02:50:07.689Z,6.30
2023-05-22T02:51:39.967Z,6.25
2023-05-22T02:53:12.362Z,5.85
2023-05-22T02:54:44.786Z,5.75
2023-05-22T02:56:17.348Z,6.47
2023-05-22T02:57:49.562Z,6.00
2023-05-22T02:59:21.752Z,5.90
2023-05-22T03:00:54.742Z,5.95
2023-05-22T03:02:28.819Z,5.55
2023-05-22T03:04:01.255Z,5.95
2023-05-22T03:05:33.909Z,6.30
2023-05-22T03:07:07.647Z,6.25
2023-05-22T03:08:43.832Z,5.88
2023-05-22T03:10:16.094Z,5.88
2023-05-22T03:11:48.252Z,5.82
2023-05-22T03:13:20.451Z,6.00
2023-05-22T03:14:52.642Z,6.68
2023-05-22T03:16:25.465Z,5.55
2023-05-22T03:17:57.673Z,6.03
2023-05-22T03:19:29.915Z,5.93
2023-05-22T03:21:02.298Z,5.65
2023-05-22T03:22:34.430Z,6.55
2023-05-22T03:24:06.915Z,5.57
2023-05-22T03:25:39.096Z,6.00
2023-05-22T03:27:12.405Z,5.78
2023-05-22T03:28:44.676Z,5.80
2023-05-22T03:30:17.002Z,5.97
2023-05-22T03:31:49.282Z,6.38
2023-05-22T03:33:21.484Z,6.63
2023-05-22T03:34:54.026Z,6.22
2023-05-22T03:36:26.210Z,6.73
2023-05-22T03:37:58.411Z,6.50
2023-05-22T03:39:30.698Z,6.18
2023-05-22T03:41:03.203Z,6.07
2023-05-22T03:42:35.340Z,5.88
2023-05-22T03:44:07.480Z,6.40
2023-05-22T03:45:39.798Z,6.25
2023-05-22T03:47:12.224Z,6.85
2023-05-22T03:48:44.392Z,6.50
2023-05-22T03:50:16.567Z,6.68
2023-05-22T03:51:48.765Z,6.53
2023-05-22T03:53:21.624Z,5.93
2023-05-22T03:54:54.140Z,7.05
2023-05-22T03:56:27.014Z,6.67
2023-05-22T03:57:59.241Z,6.95
2023-05-22T03:59:31.574Z,6.50
2023-05-22T04:01:05.803Z,6.25
2023-05-22T04:02:40.604Z,6.50
2023-05-22T04:04:12.983Z,6.50
2023-05-22T04:05:45.626Z,6.60
2023-05-22T04:07:18.774Z,6.75
2023-05-22T04:08:51.070Z,6.90
2023-05-22T04:10:24.095Z,6.60
2023-05-22T04:11:56.435Z,6.65
2023-05-22T04:13:31.379Z,7.13
2023-05-22T04:15:03.712Z,7.05
2023-05-22T04:16:36.347Z,7.30
2023-05-22T04:18:08.920Z,7.50
2023-05-22T04:19:41.136Z,6.82
2023-05-22T04:21:13.365Z,7.15
2023-05-22T04:22:46.351Z,7.28
2023-05-22T04:24:19.031Z,6.70
2023-05-22T04:25:51.788Z,7.93
2023-05-22T04:27:23.998Z,6.97
2023-05-22T04:28:56.273Z,7.25
2023-05-22T04:30:28.400Z,7.43
2023-05-22T04:32:00.655Z,7.15
2023-05-22T04:33:34.869Z,7.57
2023-05-22T04:35:07.484Z,7.28
2023-05-22T04:36:39.619Z,7.43
2023-05-22T04:38:11.986Z,7.68
2023-05-22T04:39:46.040Z,7.00
2023-05-22T04:41:22.912Z,7.18
2023-05-22T04:42:55.122Z,8.18
2023-05-22T04:44:27.652Z,7.32
2023-05-22T04:45:59.907Z,7.68
2023-05-22T04:47:32.316Z,7.75
2023-05-22T04:49:06.901Z,8.43
2023-05-22T04:50:39.165Z,8.05
2023-05-22T04:52:12.114Z,7.50
2023-05-22T04:53:44.403Z,8.10
2023-05-22T04:55:16.750Z,7.70
2023-05-22T04:56:48.863Z,7.60
2023-05-22T04:58:22.407Z,7.20
2023-05-22T04:59:54.817Z,7.63
2023-05-22T05:01:29.905Z,6.88
2023-05-22T05:03:03.347Z,7.38
2023-05-22T05:04:35.627Z,8.03
2023-05-22T05:06:08.855Z,8.05
2023-05-22T05:07:41.136Z,7.95
2023-05-22T05:09:13.251Z,7.57
2023-05-22T05:10:45.485Z,8.30
2023-05-22T05:12:17.966Z,8.25
2023-05-22T05:13:50.295Z,7.90
2023-05-22T05:15:24.146Z,8.02
2023-05-22T05:16:57.400Z,8.55
2023-05-22T05:18:29.673Z,8.00
2023-05-22T05:20:02.079Z,8.02
2023-05-22T05:21:34.229Z,8.00
2023-05-22T05:23:06.538Z,8.43
2023-05-22T05:24:38.820Z,7.75
2023-05-22T05:26:11.190Z,7.78
2023-05-22T05:27:43.310Z,7.90
2023-05-22T05:29:15.516Z,7.65
2023-05-22T05:30:47.698Z,8.40
2023-05-22T05:32:19.995Z,7.47
2023-05-22T05:33:52.687Z,7.70
2023-05-22T05:35:25.422Z,7.00
2023-05-22T05:37:00.325Z,7.50
2023-05-22T05:38:32.578Z,6.25
2023-05-22T05:40:07.660Z,6.97
2023-05-22T05:41:39.895Z,7.20
2023-05-22T05:43:14.471Z,7.55
2023-05-22T05:44:46.756Z,7.20
2023-05-22T05:46:19.691Z,7.05
2023-05-22T05:49:24.665Z,8.02
2023-05-22T05:50:56.842Z,7.93
2023-05-22T05:52:32.921Z,7.05
2023-05-22T05:54:05.505Z,7.70
2023-05-22T05:55:38.028Z,7.53
2023-05-22T05:57:10.247Z,7.57
2023-05-22T05:58:42.490Z,7.68
2023-05-22T06:00:14.919Z,6.68
2023-05-22T06:01:47.690Z,7.70
2023-05-22T06:03:19.888Z,7.60
2023-05-22T06:04:52.120Z,7.45
2023-05-22T06:06:26.533Z,7.53
2023-05-22T06:07:59.341Z,6.97
2023-05-22T06:09:31.507Z,7.20
2023-05-22T06:11:03.928Z,7.07
2023-05-22T06:12:36.069Z,7.87
2023-05-22T06:14:09.214Z,7.60
2023-05-22T06:15:41.630Z,7.57
2023-05-22T06:17:13.914Z,7.80
2023-05-22T06:18:47.143Z,7.57
2023-05-22T06:20:19.571Z,7.82
2023-05-22T06:21:52.184Z,7.82
2023-05-22T06:23:24.572Z,8.25
2023-05-22T06:24:56.792Z,8.15
2023-05-22T06:26:29.174Z,7.82
2023-05-22T06:28:01.363Z,7.28
2023-05-22T06:29:33.554Z,7.75
2023-05-22T06:31:05.885Z,7.97
2023-05-22T06:32:38.291Z,7.68
2023-05-22T06:34:10.692Z,8.52
2023-05-22T06:35:43.560Z,7.55
2023-05-22T06:37:16.537Z,7.35
2023-05-22T06:38:50.006Z,8.23
2023-05-22T06:40:22.679Z,7.50
2023-05-22T06:41:54.883Z,8.68
2023-05-22T06:43:27.098Z,7.75
2023-05-22T06:44:59.309Z,8.32
2023-05-22T06:46:31.604Z,6.97
2023-05-22T06:48:04.347Z,7.35
2023-05-22T06:49:36.745Z,6.18
2023-05-22T06:51:11.903Z,6.85
2023-05-22T06:52:44.134Z,6.32
2023-05-22T06:54:16.363Z,6.18
2023-05-22T06:55:48.834Z,5.85
2023-05-22T06:57:21.858Z,6.07
2023-05-22T06:58:54.062Z,6.53
2023-05-22T07:00:26.281Z,5.40
2023-05-22T07:01:58.384Z,5.47
2023-05-22T07:03:30.704Z,5.80
2023-05-22T07:05:02.877Z,5.55
2023-05-22T07:06:39.436Z,5.85
2023-05-22T07:08:11.670Z,5.82
2023-05-22T07:09:43.948Z,5.80
2023-05-22T07:11:16.089Z,5.90
2023-05-22T07:12:48.385Z,5.80
2023-05-22T07:14:20.569Z,5.53
2023-05-22T07:15:52.717Z,5.97
2023-05-22T07:17:24.981Z,6.60
2023-05-22T07:18:57.573Z,6.32
2023-05-22T07:20:29.840Z,6.10
2023-05-22T07:22:02.285Z,5.85
2023-05-22T07:23:34.516Z,6.40
2023-05-22T07:25:07.252Z,8.57
2023-05-22T07:26:39.505Z,6.03
2023-05-22T07:28:12.001Z,5.60
2023-05-22T07:29:44.150Z,5.97
2023-05-22T07:31:16.815Z,5.88
2023-05-22T07:32:49.246Z,6.28
2023-05-22T07:34:21.522Z,5.60
2023-05-22T07:35:53.713Z,5.32
2023-05-22T07:37:26.070Z,4.90
2023-05-22T07:38:58.922Z,5.43
2023-05-22T07:40:31.025Z,5.28
2023-05-22T07:42:03.610Z,5.65
2023-05-22T07:43:35.877Z,5.82
2023-05-22T07:45:08.969Z,5.45
2023-05-22T07:46:41.533Z,5.82
2023-05-22T07:48:13.890Z,5.35
2023-05-22T07:49:46.256Z,5.50
2023-05-22T07:51:18.473Z,5.28
2023-05-22T07:54:23.600Z,5.75
2023-05-22T07:55:55.816Z,5.00
2023-05-22T07:57:30.003Z,5.40
2023-05-22T07:59:02.228Z,5.15
2023-05-22T08:00:34.653Z,5.18
2023-05-22T08:02:08.826Z,5.03
2023-05-22T08:03:41.197Z,5.68
2023-05-22T08:05:13.623Z,4.85
2023-05-22T08:06:45.921Z,5.57
2023-05-22T08:08:18.195Z,4.97
2023-05-22T08:09:50.343Z,4.90
2023-05-22T08:11:26.659Z,4.30
2023-05-22T08:13:02.780Z,4.40
2023-05-22T08:14:34.951Z,4.53
2023-05-22T08:16:07.473Z,4.50
2023-05-22T08:17:39.651Z,4.60
2023-05-22T08:19:12.028Z,4.15
2023-05-22T08:20:44.292Z,5.20
2023-05-22T08:22:16.613Z,3.90
2023-05-22T08:23:48.824Z,3.93
2023-05-22T08:25:21.177Z,4.28
2023-05-22T08:26:53.751Z,4.17
2023-05-22T08:28:26.021Z,4.05
2023-05-22T08:29:58.256Z,3.92
2023-05-22T08:31:30.497Z,4.20
2023-05-22T08:33:02.790Z,4.70
2023-05-22T08:34:36.032Z,4.82
2023-05-22T08:37:40.407Z,4.70
2023-05-22T08:39:13.027Z,3.95
2023-05-22T08:40:49.120Z,4.22
2023-05-22T08:42:21.350Z,4.35
2023-05-22T08:43:53.668Z,4.18
2023-05-22T08:45:26.618Z,4.38
2023-05-22T08:47:01.132Z,4.13
2023-05-22T08:48:33.805Z,4.25
2023-05-22T08:50:06.923Z,3.97
2023-05-22T08:51:40.589Z,4.65
2023-05-22T08:53:16.096Z,4.05
2023-05-22T08:54:53.519Z,4.47
2023-05-22T08:56:28.608Z,3.72
2023-05-22T08:58:01.834Z,4.28
2023-05-22T08:59:39.019Z,3.88
2023-05-22T09:01:11.372Z,4.45
2023-05-22T09:02:43.995Z,4.00
2023-05-22T09:04:16.207Z,4.20
2023-05-22T09:05:49.816Z,4.05
2023-05-22T09:07:22.539Z,3.95
2023-05-22T09:08:54.871Z,4.20
2023-05-22T09:10:27.091Z,4.23
2023-05-22T09:11:59.419Z,3.85
2023-05-22T09:13:32.272Z,4.37
2023-05-22T09:15:10.685Z,4.18
2023-05-22T09:16:47.440Z,4.70
2023-05-22T09:18:19.998Z,5.05
2023-05-22T09:19:52.134Z,5.10
2023-05-22T09:21:30.202Z,4.13
2023-05-22T09:23:03.056Z,4.20
2023-05-22T09:24:42.896Z,5.33
2023-05-22T09:26:15.097Z,5.53
2023-05-22T09:27:48.124Z,4.40
2023-05-22T09:29:20.249Z,4.28
2023-05-22T09:30:54.095Z,4.40
2023-05-22T09:32:29.929Z,4.00
2023-05-22T09:34:02.303Z,4.00
2023-05-22T09:35:36.059Z,4.23
2023-05-22T09:37:08.330Z,4.07
2023-05-22T09:38:40.582Z,4.18
2023-05-22T09:40:14.677Z,4.30
2023-05-22T09:41:46.918Z,3.95
2023-05-22T09:43:19.229Z,4.00
2023-05-22T09:44:52.143Z,4.88
2023-05-22T09:46:24.332Z,4.70
2023-05-22T09:48:00.644Z,4.45
2023-05-22T09:49:37.449Z,4.32
2023-05-22T09:51:11.113Z,4.15
2023-05-22T09:52:45.271Z,4.50
2023-05-22T09:54:20.247Z,4.28
2023-05-22T09:57:34.558Z,4.20
2023-05-22T09:59:09.287Z,4.07
2023-05-22T10:00:42.388Z,4.50
2023-05-22T10:03:49.569Z,4.20
2023-05-22T10:05:22.536Z,4.03
2023-05-22T10:06:55.436Z,3.95
2023-05-22T10:08:35.101Z,4.30
2023-05-22T10:10:12.752Z,4.22
2023-05-22T10:11:45.773Z,3.70
2023-05-22T10:13:18.138Z,4.28
2023-05-22T10:14:50.778Z,4.37
2023-05-22T10:16:23.037Z,4.00
2023-05-22T10:17:55.672Z,3.97
2023-05-22T10:19:29.895Z,3.92
2023-05-22T10:21:03.114Z,4.43
2023-05-22T10:24:08.652Z,4.38
2023-05-22T10:25:41.185Z,4.90
2023-05-22T10:27:13.332Z,4.78
2023-05-22T10:28:53.946Z,4.00
2023-05-22T10:30:29.186Z,4.47
2023-05-22T10:32:10.219Z,4.10
2023-05-22T10:33:45.783Z,4.45
2023-05-22T10:35:21.731Z,4.25
2023-05-22T10:37:17.255Z,4.28
2023-05-22T10:39:21.632Z,4.50
2023-05-22T10:40:54.356Z,4.63
2023-05-22T10:42:30.364Z,4.75
2023-05-22T10:44:03.368Z,4.65
2023-05-22T10:45:37.082Z,4.63
2023-05-22T10:47:13.840Z,4.15
2023-05-22T10:48:47.789Z,4.50
2023-05-22T10:50:19.965Z,4.13
2023-05-22T10:51:58.565Z,4.45
2023-05-22T10:53:32.812Z,5.07
2023-05-22T10:56:47.417Z,5.03
2023-05-22T10:58:32.451Z,4.40
2023-05-22T11:00:19.687Z,4.30
2023-05-22T11:02:01.260Z,4.45
2023-05-22T11:03:53.246Z,4.78
2023-05-22T11:05:28.505Z,5.13
2023-05-22T11:07:08.120Z,4.70
2023-05-22T11:08:40.655Z,4.72
2023-05-22T11:10:12.815Z,5.07
2023-05-22T11:11:45.518Z,4.32
2023-05-22T11:13:18.261Z,4.20
2023-05-22T11:15:11.932Z,4.30
2023-05-22T11:16:44.309Z,4.68
2023-05-22T11:18:17.468Z,4.55
2023-05-22T11:21:30.112Z,4.50
2023-05-22T11:23:05.925Z,4.55
2023-05-22T11:24:38.101Z,4.22
2023-05-22T11:26:21.914Z,4.70
2023-05-22T11:27:54.941Z,4.95
2023-05-22T11:29:27.540Z,4.35
2023-05-22T11:31:00.609Z,4.68
2023-05-22T11:32:32.803Z,4.60
2023-05-22T11:34:05.049Z,4.38
2023-05-22T11:35:38.278Z,4.05
2023-05-22T11:38:43.908Z,4.80
2023-05-22T11:40:21.507Z,4.72
2023-05-22T11:41:53.986Z,4.55
2023-05-22T11:43:30.611Z,4.18
2023-05-22T11:45:03.587Z,4.32
2023-05-22T11:46:35.965Z,4.85
2023-05-22T11:48:09.219Z,4.63
2023-05-22T11:49:43.246Z,4.60
2023-05-22T11:51:20.088Z,4.20
2023-05-22T11:52:54.276Z,4.70
2023-05-22T11:54:26.471Z,4.72
2023-05-22T11:56:05.873Z,4.53
2023-05-22T11:57:38.703Z,4.47
2023-05-22T11:59:10.805Z,4.72
2023-05-22T12:00:43.840Z,4.32
2023-05-22T12:02:21.916Z,4.13
2023-05-22T12:03:55.394Z,4.30
2023-05-22T12:05:27.588Z,4.15
2023-05-22T12:07:00.255Z,4.25
2023-05-22T12:08:32.575Z,4.53
2023-05-22T12:10:07.628Z,4.53
2023-05-22T12:11:39.918Z,3.88
2023-05-22T12:13:12.429Z,4.03
2023-05-22T12:14:48.156Z,4.20
2023-05-22T12:16:24.179Z,4.40
2023-05-22T12:17:56.942Z,4.43
2023-05-22T12:19:29.558Z,4.85
2023-05-22T12:21:01.876Z,4.50
2023-05-22T12:22:34.016Z,4.55
2023-05-22T12:24:06.918Z,4.35
2023-05-22T12:25:39.123Z,4.60
2023-05-22T12:27:11.725Z,5.00
2023-05-22T12:28:44.342Z,4.38
2023-05-22T12:30:17.350Z,4.35
2023-05-22T12:31:50.022Z,4.32
2023-05-22T12:33:31.623Z,4.45
2023-05-22T12:35:03.846Z,4.47
2023-05-22T12:36:40.360Z,4.30
2023-05-22T12:38:13.881Z,4.72
2023-05-22T12:39:59.265Z,4.40
2023-05-22T12:41:31.405Z,4.72
2023-05-22T12:43:03.660Z,4.70
2023-05-22T12:44:42.590Z,4.77
2023-05-22T12:46:14.970Z,4.80
2023-05-22T12:47:47.346Z,4.50
2023-05-22T12:49:19.602Z,4.82
2023-05-22T12:50:51.795Z,4.30
2023-05-22T12:52:24.042Z,5.13
2023-05-22T12:53:57.285Z,4.50
2023-05-22T12:57:01.444Z,4.53
2023-05-22T12:58:33.623Z,4.30
2023-05-22T13:00:06.630Z,4.72
2023-05-22T13:01:38.805Z,4.13
2023-05-22T13:03:12.705Z,4.32
2023-05-22T13:04:44.946Z,5.00
2023-05-22T13:06:17.142Z,4.83
2023-05-22T13:07:49.558Z,4.68
2023-05-22T13:09:22.159Z,4.20
2023-05-22T13:10:54.916Z,4.35
2023-05-22T13:12:27.720Z,4.80
2023-05-22T13:13:59.877Z,4.60
2023-05-22T13:15:32.992Z,4.45
2023-05-22T13:17:05.400Z,4.68
2023-05-22T13:18:37.614Z,4.80
2023-05-22T13:21:45.246Z,4.65
2023-05-22T13:23:17.508Z,4.70
2023-05-22T13:24:49.730Z,4.90
2023-05-22T13:26:21.977Z,4.28
2023-05-22T13:27:54.169Z,4.82
2023-05-22T13:29:26.288Z,5.05
2023-05-22T13:30:58.492Z,4.70
2023-05-22T13:32:30.853Z,4.97
2023-05-22T13:34:03.386Z,4.82
2023-05-22T13:35:35.618Z,4.75
2023-05-22T13:37:08.612Z,5.00
2023-05-22T13:38:40.888Z,4.40
2023-05-22T13:40:13.414Z,4.85
2023-05-22T13:41:45.995Z,4.53
2023-05-22T13:43:18.182Z,4.15
2023-05-22T13:44:50.525Z,4.32
2023-05-22T13:46:23.195Z,4.40
2023-05-22T13:47:55.431Z,4.38
2023-05-22T13:49:28.424Z,4.50
2023-05-22T13:51:00.701Z,4.40
2023-05-22T13:52:32.910Z,4.53
2023-05-22T13:55:39.365Z,4.43
2023-05-22T13:57:11.645Z,4.40
2023-05-22T13:58:43.877Z,4.82
2023-05-22T14:00:16.715Z,4.03
2023-05-22T14:01:51.819Z,4.25
2023-05-22T14:03:24.146Z,4.03
2023-05-22T14:04:56.430Z,4.33
2023-05-22T14:06:28.672Z,5.13
2023-05-22T14:08:00.819Z,3.85
2023-05-22T14:09:32.998Z,4.35
2023-05-22T14:11:05.242Z,4.30
2023-05-22T14:12:37.353Z,4.28
2023-05-22T14:14:09.643Z,4.47
2023-05-22T14:15:42.948Z,6.15
2023-05-22T14:18:47.463Z,6.57
2023-05-22T14:20:19.735Z,14.85
2023-05-22T14:21:52.195Z,5.80
2023-05-22T14:23:24.437Z,4.30
2023-05-22T14:24:57.531Z,4.55
2023-05-22T14:26:29.786Z,4.38
2023-05-22T14:28:02.210Z,4.50
2023-05-22T14:29:34.370Z,4.10
2023-05-22T14:31:06.630Z,3.60
2023-05-22T14:32:38.894Z,3.70
2023-05-22T15:10:14.970Z,4.10
2023-05-22T15:11:49.630Z,4.23
2023-05-22T15:13:22.067Z,3.80
2023-05-22T15:14:54.205Z,4.22
2023-05-22T15:16:26.594Z,4.13
2023-05-22T15:18:02.957Z,4.13
2023-05-22T15:19:35.516Z,4.57
2023-05-22T15:21:07.895Z,4.85
2023-05-22T15:22:40.764Z,4.43
2023-05-22T15:24:13.783Z,4.63
2023-05-22T15:25:47.260Z,3.97
2023-05-22T15:27:19.447Z,4.13
2023-05-22T15:28:51.611Z,4.28
2023-05-22T15:30:23.922Z,4.32
2023-05-22T15:31:56.109Z,4.28
2023-05-22T15:33:28.263Z,4.05
2023-05-22T15:35:00.527Z,3.97
2023-05-22T15:36:33.276Z,4.27
2023-05-22T15:38:05.914Z,3.78
2023-05-22T15:39:38.153Z,3.50
2023-05-22T15:41:10.355Z,4.35
2023-05-22T15:42:42.558Z,3.83
2023-05-22T15:44:14.944Z,4.32
2023-05-22T15:45:48.940Z,4.40
2023-05-22T15:47:21.238Z,4.30
2023-05-22T15:48:53.550Z,4.40
2023-05-22T15:50:25.829Z,4.72
2023-05-22T15:51:59.004Z,4.13
2023-05-22T15:55:03.479Z,4.10
2023-05-22T15:56:35.736Z,3.90
2023-05-22T15:58:08.369Z,15.93
2023-05-22T15:59:40.505Z,22.98
2023-05-22T16:01:15.811Z,16.27
2023-05-22T16:02:48.949Z,17.60
2023-05-22T16:05:53.281Z,10.00
2023-05-22T16:07:25.514Z,12.77
2023-05-22T16:08:57.710Z,6.10
2023-05-22T16:10:30.037Z,10.15
2023-05-22T16:12:03.088Z,9.10
2023-05-22T16:13:35.521Z,5.30
2023-05-22T16:15:08.511Z,4.90
2023-05-22T16:16:41.302Z,4.53
2023-05-22T16:18:13.804Z,4.75
2023-05-22T16:19:45.923Z,4.33
2023-05-22T16:21:18.090Z,4.88
2023-05-22T16:22:50.372Z,5.13
2023-05-22T16:24:22.694Z,5.00
2023-05-22T16:25:54.923Z,4.20
2023-05-22T16:27:27.213Z,5.18
2023-05-22T16:28:59.406Z,4.30
2023-05-22T16:30:31.654Z,4.63
2023-05-22T16:32:04.405Z,4.22
2023-05-22T16:33:37.845Z,4.72
2023-05-22T16:36:42.236Z,5.45
2023-05-22T16:38:14.931Z,4.90
2023-05-22T16:39:47.693Z,4.07
2023-05-22T16:41:19.812Z,4.03
2023-05-22T16:44:31.956Z,4.00
2023-05-22T16:46:04.546Z,4.47
2023-05-22T16:47:36.843Z,4.20
2023-05-22T16:49:09.079Z,4.23
2023-05-22T16:50:42.912Z,4.13
2023-05-22T16:52:15.066Z,4.13
2023-05-22T16:53:47.343Z,4.72
2023-05-22T16:55:19.723Z,4.20
2023-05-22T16:56:51.990Z,4.10
2023-05-22T16:58:24.157Z,4.13
2023-05-22T16:59:57.826Z,4.75
2023-05-22T17:01:30.645Z,4.47
2023-05-22T17:03:03.589Z,4.25
2023-05-22T17:06:09.276Z,3.95
2023-05-22T17:07:41.716Z,3.97
2023-05-22T17:09:13.868Z,3.60
2023-05-22T17:10:46.065Z,2.80
2023-05-22T17:12:18.312Z,3.20
2023-05-22T17:13:50.612Z,3.00
2023-05-22T17:15:22.758Z,3.33
2023-05-22T17:18:38.181Z,2.97
2023-05-22T17:20:10.739Z,3.25
2023-05-22T17:21:43.613Z,3.20
2023-05-22T17:23:16.394Z,3.08
2023-05-22T17:24:49.563Z,2.92
2023-05-22T17:27:53.791Z,3.13
2023-05-22T17:29:27.971Z,3.13
2023-05-22T17:31:01.072Z,3.80
2023-05-22T17:32:33.596Z,3.40
2023-05-22T17:34:05.933Z,3.35
2023-05-22T17:35:38.394Z,3.50
2023-05-22T17:37:10.989Z,3.27
2023-05-22T17:38:43.127Z,3.60
2023-05-22T17:40:15.308Z,3.50
2023-05-22T17:41:47.484Z,3.95
2023-05-22T17:43:20.330Z,3.33
2023-05-22T17:44:52.440Z,3.67
2023-05-22T17:46:24.698Z,3.55
2023-05-22T17:47:57.021Z,3.40
2023-05-22T17:49:29.186Z,3.70
2023-05-22T17:51:01.515Z,4.18
2023-05-22T17:54:07.423Z,4.40
2023-05-22T17:57:12.115Z,4.43
2023-05-22T17:58:44.333Z,4.00
2023-05-22T18:00:20.023Z,3.30
2023-05-22T18:01:52.296Z,3.88
2023-05-22T18:03:24.697Z,4.10
2023-05-22T18:04:56.920Z,3.87
2023-05-22T18:06:29.739Z,3.90
2023-05-22T18:08:02.042Z,4.05
2023-05-22T18:09:34.372Z,3.83
2023-05-22T18:11:06.579Z,4.28
2023-05-22T18:12:38.791Z,4.43
2023-05-22T18:14:11.075Z,3.90
2023-05-22T18:15:43.294Z,3.67
2023-05-22T18:17:15.520Z,3.60
2023-05-22T18:18:47.877Z,4.20
2023-05-22T18:20:20.628Z,3.40
2023-05-22T18:23:31.928Z,3.72
2023-05-22T18:25:04.529Z,3.80
2023-05-22T18:26:36.755Z,3.58
2023-05-22T18:28:11.176Z,3.70
2023-05-22T18:29:43.514Z,3.88
2023-05-22T18:31:16.162Z,3.25
2023-05-22T18:32:48.416Z,3.50
2023-05-22T18:34:20.591Z,3.60
2023-05-22T18:35:53.178Z,3.80
2023-05-22T18:37:25.386Z,4.40
2023-05-22T18:38:57.540Z,3.67
2023-05-22T18:40:29.787Z,3.63
2023-05-22T18:42:02.019Z,3.42
2023-05-22T18:43:34.325Z,3.95
2023-05-22T18:45:07.509Z,3.90
2023-05-22T18:46:39.694Z,3.95
2023-05-22T18:48:12.169Z,3.80
2023-05-22T18:49:44.532Z,3.80
2023-05-22T18:51:17.133Z,3.67
2023-05-22T18:52:49.258Z,4.00
2023-05-22T18:54:21.465Z,3.75
2023-05-22T18:55:54.295Z,3.78
2023-05-22T18:57:26.563Z,5.55
2023-05-22T18:58:58.769Z,9.15
2023-05-22T19:00:31.234Z,4.82
2023-05-22T19:02:03.442Z,4.20
2023-05-22T19:03:35.692Z,3.50
2023-05-22T19:05:08.266Z,3.58
2023-05-22T19:06:42.515Z,3.70
2023-05-22T19:08:14.659Z,4.00
2023-05-22T19:09:46.871Z,3.78
2023-05-22T19:11:19.410Z,17.17
2023-05-22T19:12:51.555Z,15.80
2023-05-22T19:14:23.762Z,5.53
2023-05-22T19:15:57.648Z,5.45
2023-05-22T19:17:29.901Z,8.25
2023-05-22T19:19:02.204Z,12.18
2023-05-22T19:20:34.600Z,7.30
2023-05-22T19:22:06.885Z,8.27
2023-05-22T19:23:39.502Z,6.25
2023-05-22T19:25:11.750Z,6.75
2023-05-22T19:26:44.592Z,25.77
2023-05-22T19:28:17.149Z,19.98
2023-05-22T19:29:49.318Z,18.27
2023-05-22T19:31:21.772Z,19.67
2023-05-22T19:32:56.214Z,20.20
2023-05-22T19:34:28.409Z,16.50
2023-05-22T19:36:02.755Z,15.68
2023-05-22T19:37:34.938Z,12.77
2023-05-22T19:39:07.176Z,11.80
2023-05-22T19:40:39.788Z,11.40
2023-05-22T19:42:12.778Z,10.50
2023-05-22T19:43:45.383Z,9.75
2023-05-22T19:45:18.015Z,10.77
2023-05-22T19:46:50.291Z,9.73
2023-05-22T19:48:22.654Z,8.00
2023-05-22T19:49:54.930Z,8.43
2023-05-22T19:51:28.384Z,8.82
2023-05-22T19:53:00.602Z,8.25
2023-05-22T19:54:32.758Z,7.97
2023-05-22T19:56:05.047Z,8.50
2023-05-22T19:57:37.751Z,7.28
2023-05-22T19:59:09.930Z,7.57
2023-05-22T20:00:42.627Z,7.38
2023-05-22T20:02:14.974Z,8.55
2023-05-22T20:03:47.600Z,9.90
2023-05-22T20:05:19.920Z,13.05
2023-05-22T20:06:52.182Z,8.60
2023-05-22T20:08:25.935Z,7.38
2023-05-22T20:09:59.361Z,6.57
2023-05-22T20:11:31.641Z,7.53
2023-05-22T20:13:05.283Z,7.38
2023-05-22T20:14:37.917Z,6.65
2023-05-22T20:16:13.026Z,6.75
2023-05-22T20:17:47.941Z,6.47
2023-05-22T20:19:20.684Z,7.05
2023-05-22T20:20:52.954Z,6.72
2023-05-22T20:22:26.124Z,7.00
2023-05-22T20:23:58.429Z,6.03
2023-05-22T20:27:06.908Z,6.47
2023-05-22T20:28:39.121Z,6.07
2023-05-22T20:30:12.952Z,6.07
2023-05-22T20:31:49.004Z,5.93
2023-05-22T20:33:21.328Z,5.85
2023-05-22T20:34:55.646Z,6.43
2023-05-22T20:36:28.137Z,5.18
2023-05-22T20:38:03.555Z,6.20
2023-05-22T20:39:35.728Z,5.75
2023-05-22T20:41:09.785Z,5.63
2023-05-22T20:42:43.296Z,5.40
2023-05-22T20:44:18.313Z,5.25
2023-05-22T20:45:50.840Z,5.18
2023-05-22T20:47:23.082Z,5.00
2023-05-22T20:48:55.380Z,4.90
2023-05-22T20:50:27.705Z,5.55
2023-05-22T20:52:00.463Z,5.00
2023-05-22T20:53:32.671Z,5.00
2023-05-22T20:55:05.490Z,4.43
2023-05-22T20:56:38.080Z,4.32
2023-05-22T20:58:10.220Z,4.70
2023-05-22T21:01:25.564Z,4.53
2023-05-22T21:02:58.693Z,4.70
2023-05-22T21:04:30.990Z,4.20
2023-05-22T21:06:03.217Z,4.40
2023-05-22T21:07:35.522Z,4.22
2023-05-22T21:09:07.800Z,4.35
2023-05-22T21:10:40.314Z,4.60
2023-05-22T21:12:12.565Z,4.57
2023-05-22T21:13:45.133Z,4.38
2023-05-22T21:15:17.522Z,5.03
2023-05-22T21:16:49.627Z,4.47
2023-05-22T21:18:22.418Z,4.22
2023-05-22T21:19:54.550Z,5.72
2023-05-22T21:21:26.960Z,4.53
2023-05-22T21:22:59.099Z,4.10
2023-05-22T21:24:32.863Z,4.25
2023-05-22T21:26:05.025Z,4.40
2023-05-22T21:27:37.285Z,4.25
2023-05-22T21:29:12.390Z,4.05
2023-05-22T21:32:24.107Z,4.25
2023-05-22T21:33:56.469Z,4.30
2023-05-22T21:35:28.776Z,4.15
2023-05-22T21:37:00.970Z,4.40
2023-05-22T21:38:33.152Z,4.10
2023-05-22T21:40:05.844Z,3.90
2023-05-22T21:41:37.995Z,4.50
2023-05-22T21:43:10.146Z,4.22
2023-05-22T21:44:42.295Z,4.05
2023-05-22T21:46:14.673Z,4.03
2023-05-22T21:47:46.962Z,4.50
2023-05-22T21:49:19.081Z,3.80
2023-05-22T21:50:51.342Z,4.32
2023-05-22T21:52:25.557Z,4.47
2023-05-22T21:53:57.853Z,4.32
2023-05-22T21:55:29.993Z,4.15
2023-05-22T21:57:02.275Z,4.05
2023-05-22T21:58:37.018Z,4.40
2023-05-22T22:00:09.702Z,3.90
2023-05-22T22:01:41.909Z,4.40
2023-05-22T22:03:14.154Z,4.32